createdAt,value
2022-09-21T00:01:11.096Z,98815.52
2022-09-21T00:02:13.472Z,98813.58
2022-09-21T00:03:16.003Z,98817.24
2022-09-21T00:04:17.653Z,98819.34
2022-09-21T00:05:19.285Z,98819.23
2022-09-21T00:06:23.214Z,98815.52
2022-09-21T00:07:24.934Z,98817.75
2022-09-21T00:08:26.824Z,98818.40
2022-09-21T00:09:28.433Z,98818.40
2022-09-21T00:10:30.288Z,98819.70
2022-09-21T00:11:33.941Z,98820.23
2022-09-21T00:12:38.532Z,98820.44
2022-09-21T00:13:40.638Z,98819.42
2022-09-21T00:14:43.259Z,98817.03
2022-09-21T00:15:44.841Z,98818.46
2022-09-21T00:16:46.511Z,98822.49
2022-09-21T00:17:48.249Z,98825.50
2022-09-21T00:18:50.279Z,98823.33
2022-09-21T00:19:52.437Z,98823.17
2022-09-21T00:20:54.126Z,98820.48
2022-09-21T00:21:56.583Z,98819.33
2022-09-21T00:22:58.385Z,98818.76
2022-09-21T00:24:00.662Z,98820.66
2022-09-21T00:25:03.499Z,98819.19
2022-09-21T00:26:06.226Z,98824.09
2022-09-21T00:27:07.850Z,98826.25
2022-09-21T00:28:09.636Z,98825.23
2022-09-21T00:29:11.286Z,98827.19
2022-09-21T00:30:13.026Z,98827.50
2022-09-21T00:31:18.837Z,98826.77
2022-09-21T00:32:20.487Z,98828.48
2022-09-21T00:33:22.069Z,98827.79
2022-09-21T00:34:24.777Z,98833.42
2022-09-21T00:35:26.405Z,98827.61
2022-09-21T00:36:28.653Z,98828.91
2022-09-21T00:37:30.933Z,98828.79
2022-09-21T00:38:33.560Z,98825.89
2022-09-21T00:39:35.414Z,98829.08
2022-09-21T00:40:37.045Z,98828.59
2022-09-21T00:41:38.684Z,98827.23
2022-09-21T00:42:40.401Z,98825.41
2022-09-21T00:44:07.770Z,98827.19
2022-09-21T00:45:21.387Z,98826.52
2022-09-21T00:46:30.897Z,98825.17
2022-09-21T00:47:43.092Z,98827.05
2022-09-21T00:48:46.917Z,98826.84
2022-09-21T00:49:54.400Z,98822.50
2022-09-21T00:51:03.877Z,98825.83
2022-09-21T00:52:08.400Z,98822.82
2022-09-21T00:53:10.449Z,98822.65
2022-09-21T00:54:23.245Z,98825.48
2022-09-21T00:55:34.409Z,98828.88
2022-09-21T00:56:37.364Z,98832.35
2022-09-21T00:57:39.615Z,98830.88
2022-09-21T00:58:47.934Z,98830.06
2022-09-21T00:59:54.528Z,98831.68
2022-09-21T01:00:59.965Z,98837.20
2022-09-21T01:02:01.635Z,98830.41
2022-09-21T01:03:05.378Z,98836.31
2022-09-21T01:04:08.741Z,98834.89
2022-09-21T01:05:10.736Z,98829.61
2022-09-21T01:06:19.979Z,98831.45
2022-09-21T01:07:29.348Z,98832.98
2022-09-21T01:08:31.493Z,98834.55
2022-09-21T01:09:34.728Z,98832.34
2022-09-21T01:11:16.421Z,98833.20
2022-09-21T01:12:41.242Z,98834.94
2022-09-21T01:14:19.915Z,98834.23
2022-09-21T01:15:37.849Z,98832.50
2022-09-21T01:16:53.228Z,98828.79
2022-09-21T01:18:05.954Z,98831.21
2022-09-21T01:19:34.736Z,98831.44
2022-09-21T01:21:01.185Z,98830.63
2022-09-21T01:22:44.014Z,98827.06
2022-09-21T01:24:11.529Z,98824.74
2022-09-21T01:25:34.699Z,98826.47
2022-09-21T01:26:48.490Z,98829.92
2022-09-21T01:28:07.849Z,98829.40
2022-09-21T01:29:28.000Z,98835.58
2022-09-21T01:30:34.149Z,98832.67
2022-09-21T01:31:54.143Z,98835.77
2022-09-21T01:33:26.353Z,98830.95
2022-09-21T01:34:48.901Z,98831.02
2022-09-21T01:35:58.027Z,98829.91
2022-09-21T01:37:11.787Z,98830.80
2022-09-21T01:38:50.029Z,98835.44
2022-09-21T01:39:59.726Z,98835.92
2022-09-21T01:41:08.330Z,98834.79
2022-09-21T01:42:13.502Z,98832.86
2022-09-21T01:43:25.332Z,98836.59
2022-09-21T01:44:34.554Z,98836.27
2022-09-21T01:45:43.337Z,98837.48
2022-09-21T01:46:47.535Z,98837.70
2022-09-21T01:47:51.288Z,98837.30
2022-09-21T01:49:06.814Z,98840.57
2022-09-21T01:50:12.196Z,98841.10
2022-09-21T01:51:19.679Z,98840.76
2022-09-21T01:52:33.124Z,98843.02
2022-09-21T01:53:41.986Z,98842.23
2022-09-21T01:54:52.582Z,98843.77
2022-09-21T01:56:05.116Z,98843.20
2022-09-21T01:57:15.346Z,98839.98
2022-09-21T01:58:33.093Z,98839.11
2022-09-21T01:59:49.175Z,98843.41
2022-09-21T02:00:56.572Z,98842.09
2022-09-21T02:02:12.838Z,98844.75
2022-09-21T02:03:28.330Z,98845.89
2022-09-21T02:04:30.788Z,98844.63
2022-09-21T02:05:33.855Z,98843.02
2022-09-21T02:06:41.308Z,98842.45
2022-09-21T02:07:43.748Z,98848.48
2022-09-21T02:08:46.661Z,98846.84
2022-09-21T02:09:48.709Z,98845.83
2022-09-21T02:10:53.132Z,98849.03
2022-09-21T02:11:54.835Z,98843.88
2022-09-21T02:13:01.614Z,98847.25
2022-09-21T02:14:03.294Z,98849.80
2022-09-21T02:15:05.781Z,98853.72
2022-09-21T02:16:07.372Z,98850.45
2022-09-21T02:17:23.646Z,98852.99
2022-09-21T02:18:47.002Z,98857.32
2022-09-21T02:20:10.953Z,98858.36
2022-09-21T02:21:48.368Z,98859.66
2022-09-21T02:23:26.492Z,98857.09
2022-09-21T02:24:48.009Z,98860.93
2022-09-21T02:25:57.565Z,98859.63
2022-09-21T02:27:10.847Z,98857.83
2022-09-21T02:29:01.373Z,98857.86
2022-09-21T02:30:22.145Z,98857.83
2022-09-21T02:31:53.558Z,98861.24
2022-09-21T02:33:36.793Z,98866.39
2022-09-21T02:34:46.795Z,98868.14
2022-09-21T02:36:16.716Z,98867.40
2022-09-21T02:37:47.233Z,98869.77
2022-09-21T02:39:05.152Z,98867.45
2022-09-21T02:40:22.928Z,98868.82
2022-09-21T02:41:37.894Z,98866.73
2022-09-21T02:42:46.355Z,98872.06
2022-09-21T02:43:52.675Z,98871.48
2022-09-21T02:45:08.189Z,98868.79
2022-09-21T02:46:30.958Z,98870.83
2022-09-21T02:47:42.805Z,98874.23
2022-09-21T02:48:51.462Z,98876.33
2022-09-21T02:50:03.359Z,98877.51
2022-09-21T02:51:16.651Z,98874.13
2022-09-21T02:52:21.833Z,98873.89
2022-09-21T02:53:29.528Z,98873.07
2022-09-21T02:54:34.163Z,98876.40
2022-09-21T02:55:36.643Z,98873.10
2022-09-21T02:56:41.450Z,98875.36
2022-09-21T02:57:47.485Z,98877.40
2022-09-21T02:58:55.006Z,98872.75
2022-09-21T02:59:56.966Z,98875.14
2022-09-21T03:01:00.161Z,98874.40
2022-09-21T03:02:02.122Z,98873.96
2022-09-21T03:03:22.082Z,98875.70
2022-09-21T03:04:24.963Z,98876.23
2022-09-21T03:05:28.553Z,98878.17
2022-09-21T03:06:31.388Z,98876.98
2022-09-21T03:07:33.048Z,98880.20
2022-09-21T03:08:34.709Z,98879.36
2022-09-21T03:09:36.357Z,98882.16
2022-09-21T03:10:39.722Z,98882.98
2022-09-21T03:11:43.157Z,98882.41
2022-09-21T03:12:46.039Z,98885.59
2022-09-21T03:13:47.634Z,98884.95
2022-09-21T03:14:51.260Z,98885.34
2022-09-21T03:16:01.069Z,98883.40
2022-09-21T03:17:03.037Z,98883.37
2022-09-21T03:18:06.706Z,98885.08
2022-09-21T03:19:09.013Z,98884.39
2022-09-21T03:20:10.726Z,98882.27
2022-09-21T03:21:13.317Z,98881.14
2022-09-21T03:22:14.947Z,98880.08
2022-09-21T03:23:16.577Z,98881.98
2022-09-21T03:24:38.193Z,98885.61
2022-09-21T03:25:43.613Z,98885.02
2022-09-21T03:26:45.256Z,98887.77
2022-09-21T03:27:46.890Z,98886.80
2022-09-21T03:28:54.814Z,98892.90
2022-09-21T03:30:01.299Z,98891.23
2022-09-21T03:31:03.971Z,98895.92
2022-09-21T03:32:06.154Z,98893.30
2022-09-21T03:33:08.335Z,98894.80
2022-09-21T03:34:11.372Z,98899.42
2022-09-21T03:35:13.042Z,98897.34
2022-09-21T03:36:14.889Z,98896.42
2022-09-21T03:37:17.082Z,98896.91
2022-09-21T03:38:21.546Z,98893.67
2022-09-21T03:39:23.198Z,98896.90
2022-09-21T03:40:26.560Z,98898.44
2022-09-21T03:41:28.479Z,98898.88
2022-09-21T03:42:30.102Z,98900.08
2022-09-21T03:43:32.403Z,98898.65
2022-09-21T03:44:34.226Z,98900.25
2022-09-21T03:45:35.828Z,98897.17
2022-09-21T03:46:37.528Z,98897.17
2022-09-21T03:47:40.434Z,98895.81
2022-09-21T03:48:42.483Z,98893.42
2022-09-21T03:49:44.137Z,98898.59
2022-09-21T03:50:45.794Z,98899.95
2022-09-21T03:51:47.757Z,98903.73
2022-09-21T03:52:49.465Z,98905.02
2022-09-21T03:53:51.474Z,98897.91
2022-09-21T03:54:53.120Z,98905.52
2022-09-21T03:55:54.732Z,98902.83
2022-09-21T03:56:56.418Z,98906.39
2022-09-21T03:57:58.098Z,98904.39
2022-09-21T03:58:59.788Z,98905.94
2022-09-21T04:00:04.021Z,98908.58
2022-09-21T04:01:06.007Z,98908.64
2022-09-21T04:02:08.435Z,98906.09
2022-09-21T04:03:10.117Z,98909.01
2022-09-21T04:04:11.796Z,98907.83
2022-09-21T04:05:15.707Z,98908.04
2022-09-21T04:06:18.145Z,98907.66
2022-09-21T04:07:19.886Z,98906.42
2022-09-21T04:08:21.527Z,98911.01
2022-09-21T04:09:23.468Z,98912.33
2022-09-21T04:10:29.290Z,98917.38
2022-09-21T04:11:32.461Z,98915.33
2022-09-21T04:12:34.918Z,98916.39
2022-09-21T04:13:36.592Z,98919.09
2022-09-21T04:14:38.364Z,98919.35
2022-09-21T04:15:40.105Z,98920.77
2022-09-21T04:16:41.828Z,98922.27
2022-09-21T04:17:43.590Z,98921.18
2022-09-21T04:18:45.261Z,98922.48
2022-09-21T04:19:47.815Z,98921.90
2022-09-21T04:20:49.401Z,98918.74
2022-09-21T04:21:55.949Z,98918.42
2022-09-21T04:22:57.908Z,98919.61
2022-09-21T04:24:00.235Z,98920.92
2022-09-21T04:25:02.774Z,98925.17
2022-09-21T04:26:04.557Z,98925.55
2022-09-21T04:27:06.890Z,98924.94
2022-09-21T04:28:08.871Z,98923.53
2022-09-21T04:29:11.971Z,98923.04
2022-09-21T04:30:15.929Z,98924.36
2022-09-21T04:31:17.779Z,98921.00
2022-09-21T04:32:19.410Z,98924.56
2022-09-21T04:33:22.186Z,98926.16
2022-09-21T04:34:23.943Z,98927.84
2022-09-21T04:35:25.541Z,98920.94
2022-09-21T04:36:33.152Z,98923.96
2022-09-21T04:37:37.565Z,98919.95
2022-09-21T04:38:40.519Z,98920.57
2022-09-21T04:39:42.170Z,98924.39
2022-09-21T04:40:43.781Z,98923.94
2022-09-21T04:41:45.910Z,98922.74
2022-09-21T04:42:53.829Z,98921.15
2022-09-21T04:43:55.506Z,98925.95
2022-09-21T04:44:57.118Z,98923.86
2022-09-21T04:45:58.854Z,98921.98
2022-09-21T04:47:00.618Z,98925.55
2022-09-21T04:48:02.469Z,98928.86
2022-09-21T04:49:04.633Z,98926.14
2022-09-21T04:50:06.979Z,98928.17
2022-09-21T04:51:10.367Z,98926.34
2022-09-21T04:52:14.739Z,98928.21
2022-09-21T04:53:20.005Z,98930.95
2022-09-21T04:54:21.622Z,98931.74
2022-09-21T04:55:23.225Z,98928.86
2022-09-21T04:56:24.839Z,98932.79
2022-09-21T04:57:26.503Z,98931.66
2022-09-21T04:58:28.237Z,98933.21
2022-09-21T04:59:29.933Z,98928.85
2022-09-21T05:00:32.009Z,98932.30
2022-09-21T05:01:33.892Z,98934.45
2022-09-21T05:02:35.527Z,98929.66
2022-09-21T05:03:38.343Z,98932.41
2022-09-21T05:04:40.042Z,98932.48
2022-09-21T05:05:50.585Z,98934.33
2022-09-21T05:06:52.184Z,98934.49
2022-09-21T05:07:54.239Z,98938.52
2022-09-21T05:09:15.219Z,98940.70
2022-09-21T05:10:16.917Z,98945.20
2022-09-21T05:11:19.636Z,98947.20
2022-09-21T05:12:21.258Z,98949.96
2022-09-21T05:13:22.880Z,98947.64
2022-09-21T05:14:24.516Z,98951.17
2022-09-21T05:15:26.157Z,98952.83
2022-09-21T05:16:27.801Z,98956.45
2022-09-21T05:17:29.742Z,98952.90
2022-09-21T05:18:31.546Z,98955.69
2022-09-21T05:19:33.200Z,98953.67
2022-09-21T05:20:35.018Z,98959.16
2022-09-21T05:21:37.145Z,98959.70
2022-09-21T05:22:38.833Z,98960.55
2022-09-21T05:23:40.745Z,98960.88
2022-09-21T05:24:42.441Z,98960.23
2022-09-21T05:25:44.051Z,98957.21
2022-09-21T05:26:45.823Z,98960.70
2022-09-21T05:27:47.582Z,98959.93
2022-09-21T05:28:49.834Z,98963.10
2022-09-21T05:29:51.905Z,98963.26
2022-09-21T05:31:18.772Z,98960.63
2022-09-21T05:32:45.351Z,98961.61
2022-09-21T05:33:52.677Z,98958.66
2022-09-21T05:35:02.249Z,98965.27
2022-09-21T05:36:34.507Z,98964.85
2022-09-21T05:38:12.679Z,98963.33
2022-09-21T05:39:14.595Z,98963.98
2022-09-21T05:40:16.606Z,98964.64
2022-09-21T05:41:18.512Z,98963.70
2022-09-21T05:42:20.307Z,98967.80
2022-09-21T05:43:22.319Z,98969.35
2022-09-21T05:44:24.340Z,98968.48
2022-09-21T05:45:28.749Z,98970.74
2022-09-21T05:46:51.676Z,98973.70
2022-09-21T05:48:00.141Z,98977.16
2022-09-21T05:49:22.786Z,98976.71
2022-09-21T05:51:03.096Z,98976.96
2022-09-21T05:52:25.593Z,98975.46
2022-09-21T05:53:30.093Z,98978.09
2022-09-21T05:54:48.794Z,98975.46
2022-09-21T05:55:56.686Z,98979.42
2022-09-21T05:57:27.416Z,98976.77
2022-09-21T05:58:55.354Z,98980.77
2022-09-21T06:00:12.295Z,98977.89
2022-09-21T06:02:05.218Z,98979.21
2022-09-21T06:03:32.330Z,98980.63
2022-09-21T06:04:34.395Z,98981.67
2022-09-21T06:05:36.243Z,98981.15
2022-09-21T06:06:38.899Z,98983.23
2022-09-21T06:07:41.605Z,98978.41
2022-09-21T06:08:43.201Z,98983.98
2022-09-21T06:09:45.170Z,98976.61
2022-09-21T06:10:46.845Z,98982.05
2022-09-21T06:11:48.690Z,98982.10
2022-09-21T06:12:50.346Z,98981.59
2022-09-21T06:13:51.982Z,98985.86
2022-09-21T06:14:53.920Z,98985.88
2022-09-21T06:15:55.561Z,98981.88
2022-09-21T06:16:57.198Z,98983.73
2022-09-21T06:17:59.406Z,98989.84
2022-09-21T06:19:00.997Z,98988.73
2022-09-21T06:20:03.482Z,98991.67
2022-09-21T06:21:05.459Z,98991.48
2022-09-21T06:22:07.121Z,98985.49
2022-09-21T06:23:11.723Z,98988.42
2022-09-21T06:24:13.319Z,98992.20
2022-09-21T06:25:15.201Z,98991.89
2022-09-21T06:26:17.674Z,98992.36
2022-09-21T06:27:19.450Z,98994.23
2022-09-21T06:28:21.190Z,98994.23
2022-09-21T06:29:23.713Z,98994.94
2022-09-21T06:30:25.482Z,98993.27
2022-09-21T06:31:28.007Z,98995.29
2022-09-21T06:32:29.794Z,98996.30
2022-09-21T06:33:31.406Z,98995.62
2022-09-21T06:34:33.014Z,98998.81
2022-09-21T06:35:36.599Z,98996.26
2022-09-21T06:36:38.207Z,98995.77
2022-09-21T06:37:42.054Z,98992.42
2022-09-21T06:38:43.838Z,98995.79
2022-09-21T06:39:45.634Z,98994.41
2022-09-21T06:40:47.301Z,98994.70
2022-09-21T06:41:48.933Z,98994.77
2022-09-21T06:42:56.120Z,98993.73
2022-09-21T06:43:57.756Z,98997.68
2022-09-21T06:44:59.445Z,98993.96
2022-09-21T06:46:03.114Z,98996.18
2022-09-21T06:47:05.016Z,98994.20
2022-09-21T06:48:06.837Z,98998.91
2022-09-21T06:49:08.434Z,99004.51
2022-09-21T06:50:10.045Z,99004.11
2022-09-21T06:51:11.638Z,99004.73
2022-09-21T06:52:13.254Z,99005.57
2022-09-21T06:53:16.338Z,99007.11
2022-09-21T06:54:18.385Z,99008.66
2022-09-21T06:55:20.235Z,99007.31
2022-09-21T06:56:22.094Z,99009.11
2022-09-21T06:57:24.022Z,99005.83
2022-09-21T06:58:25.644Z,99002.48
2022-09-21T06:59:27.262Z,99007.92
2022-09-21T07:00:29.795Z,99007.96
2022-09-21T07:01:31.468Z,99008.35
2022-09-21T07:02:33.465Z,99005.80
2022-09-21T07:03:35.993Z,99009.78
2022-09-21T07:04:37.598Z,99011.67
2022-09-21T07:05:40.028Z,99011.45
2022-09-21T07:06:41.657Z,99011.35
2022-09-21T07:07:43.286Z,99010.88
2022-09-21T07:10:14.592Z,99013.52
2022-09-21T07:11:19.725Z,99014.15
2022-09-21T07:12:21.960Z,99015.30
2022-09-21T07:13:23.764Z,99010.33
2022-09-21T07:14:25.486Z,99013.52
2022-09-21T07:15:29.024Z,99017.91
2022-09-21T07:16:31.053Z,99017.48
2022-09-21T07:17:35.085Z,99018.25
2022-09-21T07:18:43.629Z,99016.53
2022-09-21T07:19:46.034Z,99020.92
2022-09-21T07:20:51.778Z,99019.01
2022-09-21T07:21:54.345Z,99024.42
2022-09-21T07:22:55.999Z,99021.34
2022-09-21T07:24:01.195Z,99019.67
2022-09-21T07:25:06.735Z,99019.89
2022-09-21T07:26:11.804Z,99022.60
2022-09-21T07:27:13.433Z,99023.09
2022-09-21T07:28:15.254Z,99022.90
2022-09-21T07:29:16.855Z,99022.30
2022-09-21T07:30:18.593Z,99026.41
2022-09-21T07:31:20.241Z,99020.60
2022-09-21T07:32:21.939Z,99026.80
2022-09-21T07:33:24.520Z,99027.12
2022-09-21T07:34:26.390Z,99023.34
2022-09-21T07:35:28.018Z,99027.23
2022-09-21T07:36:29.746Z,99026.41
2022-09-21T07:37:31.802Z,99028.65
2022-09-21T07:38:35.554Z,99027.30
2022-09-21T07:39:39.110Z,99021.55
2022-09-21T07:40:40.872Z,99025.79
2022-09-21T07:41:42.506Z,99024.61
2022-09-21T07:42:44.828Z,99024.38
2022-09-21T07:43:47.170Z,99023.33
2022-09-21T07:44:49.263Z,99023.98
2022-09-21T07:45:58.008Z,99026.20
2022-09-21T07:47:01.261Z,99024.40
2022-09-21T07:48:04.740Z,99022.23
2022-09-21T07:49:06.531Z,99020.27
2022-09-21T07:50:08.887Z,99018.52
2022-09-21T07:51:14.190Z,99018.81
2022-09-21T07:52:15.906Z,99018.63
2022-09-21T07:53:17.636Z,99019.77
2022-09-21T07:54:19.233Z,99018.52
2022-09-21T07:55:21.086Z,99021.95
2022-09-21T07:56:23.545Z,99022.65
2022-09-21T07:57:43.447Z,99024.34
2022-09-21T07:59:03.397Z,99023.58
2022-09-21T08:00:05.690Z,99026.83
2022-09-21T08:01:13.481Z,99026.21
2022-09-21T08:02:15.238Z,99028.60
2022-09-21T08:03:17.015Z,99026.83
2022-09-21T08:04:18.822Z,99030.50
2022-09-21T08:05:20.480Z,99025.39
2022-09-21T08:06:24.638Z,99032.72
2022-09-21T08:07:28.370Z,99032.59
2022-09-21T08:08:30.397Z,99032.64
2022-09-21T08:09:32.018Z,99029.81
2022-09-21T08:10:35.386Z,99030.09
2022-09-21T08:11:37.699Z,99032.91
2022-09-21T08:12:40.068Z,99033.77
2022-09-21T08:13:41.775Z,99034.33
2022-09-21T08:14:43.548Z,99036.70
2022-09-21T08:15:49.800Z,99034.58
2022-09-21T08:16:51.964Z,99036.80
2022-09-21T08:17:54.574Z,99034.20
2022-09-21T08:18:56.637Z,99037.71
2022-09-21T08:19:58.618Z,99037.77
2022-09-21T08:21:00.974Z,99034.95
2022-09-21T08:22:02.777Z,99033.89
2022-09-21T08:24:58.311Z,99037.52
2022-09-21T08:26:13.528Z,99037.95
2022-09-21T08:27:25.219Z,99037.73
2022-09-21T08:28:59.789Z,99037.73
2022-09-21T08:30:27.732Z,99034.77
2022-09-21T08:31:40.103Z,99033.48
2022-09-21T08:32:51.717Z,99032.45
2022-09-21T08:33:57.793Z,99033.18
2022-09-21T08:34:59.675Z,99036.80
2022-09-21T08:36:02.216Z,99034.86
2022-09-21T08:37:03.996Z,99036.41
2022-09-21T08:38:06.046Z,99036.37
2022-09-21T08:39:09.193Z,99034.84
2022-09-21T08:40:12.439Z,99035.28
2022-09-21T08:41:20.297Z,99037.66
2022-09-21T08:42:37.289Z,99038.19
2022-09-21T08:43:45.663Z,99038.84
2022-09-21T08:45:00.472Z,99041.55
2022-09-21T08:46:13.210Z,99041.83
2022-09-21T08:47:28.718Z,99044.64
2022-09-21T08:48:37.946Z,99041.16
2022-09-21T08:49:46.306Z,99039.60
2022-09-21T08:50:54.774Z,99036.05
2022-09-21T08:52:14.463Z,99040.26
2022-09-21T08:53:34.470Z,99038.94
2022-09-21T08:54:46.683Z,99038.70
2022-09-21T08:55:48.415Z,99034.25
2022-09-21T08:57:04.612Z,99038.91
2022-09-21T08:58:28.518Z,99030.23
2022-09-21T08:59:30.219Z,99035.35
2022-09-21T09:00:39.945Z,99033.98
2022-09-21T09:02:04.015Z,99035.00
2022-09-21T09:03:24.256Z,99032.67
2022-09-21T09:04:49.274Z,99036.84
2022-09-21T09:06:07.624Z,99039.36
2022-09-21T09:07:44.224Z,99038.59
2022-09-21T09:09:01.862Z,99037.17
2022-09-21T09:10:29.640Z,99036.52
2022-09-21T09:11:54.568Z,99036.77
2022-09-21T09:13:28.287Z,99037.65
2022-09-21T09:14:53.758Z,99041.30
2022-09-21T09:16:08.112Z,99040.71
2022-09-21T09:17:35.740Z,99040.05
2022-09-21T09:18:52.849Z,99035.48
2022-09-21T09:20:05.536Z,99040.50
2022-09-21T09:21:26.659Z,99039.39
2022-09-21T09:22:44.793Z,99040.92
2022-09-21T09:23:54.232Z,99039.84
2022-09-21T09:25:03.038Z,99042.17
2022-09-21T09:26:26.062Z,99043.43
2022-09-21T09:27:34.914Z,99045.10
2022-09-21T09:28:52.722Z,99040.83
2022-09-21T09:30:04.055Z,99042.69
2022-09-21T09:31:28.219Z,99038.75
2022-09-21T09:32:48.683Z,99042.30
2022-09-21T09:34:25.621Z,99042.53
2022-09-21T09:35:45.642Z,99045.48
2022-09-21T09:36:59.233Z,99040.84
2022-09-21T09:38:21.506Z,99044.30
2022-09-21T09:39:24.627Z,99041.92
2022-09-21T09:41:08.932Z,99041.46
2022-09-21T09:42:25.770Z,99041.16
2022-09-21T09:43:43.315Z,99041.20
2022-09-21T09:45:37.641Z,99035.52
2022-09-21T09:47:16.651Z,99033.80
2022-09-21T09:48:51.882Z,99037.65
2022-09-21T09:50:04.675Z,99037.83
2022-09-21T09:51:12.746Z,99034.12
2022-09-21T09:52:16.714Z,99038.02
2022-09-21T09:53:23.927Z,99040.20
2022-09-21T09:54:28.254Z,99036.84
2022-09-21T09:55:38.196Z,99040.46
2022-09-21T09:56:39.877Z,99038.44
2022-09-21T09:57:42.023Z,99040.91
2022-09-21T09:59:09.061Z,99034.86
2022-09-21T10:00:15.230Z,99037.31
2022-09-21T10:01:36.624Z,99037.05
2022-09-21T10:02:47.407Z,99037.16
2022-09-21T10:04:09.002Z,99037.31
2022-09-21T10:05:28.898Z,99035.73
2022-09-21T10:06:32.951Z,99030.95
2022-09-21T10:07:40.270Z,99030.57
2022-09-21T10:08:48.502Z,99030.78
2022-09-21T10:09:50.096Z,99031.61
2022-09-21T10:10:51.773Z,99032.27
2022-09-21T10:11:59.026Z,99029.55
2022-09-21T10:13:16.033Z,99029.96
2022-09-21T10:14:27.078Z,99029.58
2022-09-21T10:15:29.701Z,99030.98
2022-09-21T10:16:31.608Z,99028.23
2022-09-21T10:17:33.395Z,99028.55
2022-09-21T10:18:50.035Z,99026.96
2022-09-21T10:20:08.108Z,99031.86
2022-09-21T10:21:19.401Z,99035.30
2022-09-21T10:22:22.639Z,99036.02
2022-09-21T10:23:25.471Z,99035.09
2022-09-21T10:24:33.448Z,99036.77
2022-09-21T10:25:39.494Z,99035.46
2022-09-21T10:26:49.829Z,99034.96
2022-09-21T10:27:53.142Z,99036.48
2022-09-21T10:28:57.324Z,99034.73
2022-09-21T10:29:58.983Z,99036.52
2022-09-21T10:31:21.448Z,99033.77
2022-09-21T10:32:28.311Z,99034.30
2022-09-21T10:33:30.626Z,99032.11
2022-09-21T10:34:35.235Z,99034.59
2022-09-21T10:35:50.410Z,99033.13
2022-09-21T10:36:56.036Z,99031.98
2022-09-21T10:38:22.010Z,99033.06
2022-09-21T10:39:32.247Z,99035.75
2022-09-21T10:40:38.612Z,99040.10
2022-09-21T10:41:40.340Z,99038.77
2022-09-21T10:42:43.698Z,99037.43
2022-09-21T10:43:45.864Z,99038.59
2022-09-21T10:44:52.014Z,99036.46
2022-09-21T10:45:57.080Z,99041.36
2022-09-21T10:47:16.918Z,99039.98
2022-09-21T10:48:23.186Z,99040.18
2022-09-21T10:49:28.900Z,99041.27
2022-09-21T10:50:44.749Z,99038.70
2022-09-21T10:51:50.578Z,99038.11
2022-09-21T10:52:59.591Z,99038.53
2022-09-21T10:54:01.619Z,99035.77
2022-09-21T10:55:03.519Z,99035.58
2022-09-21T10:56:17.393Z,99037.49
2022-09-21T10:57:23.517Z,99039.23
2022-09-21T10:58:25.904Z,99040.60
2022-09-21T10:59:32.374Z,99037.85
2022-09-21T11:00:44.985Z,99038.83
2022-09-21T11:01:49.885Z,99039.77
2022-09-21T11:02:52.215Z,99036.00
2022-09-21T11:04:03.058Z,99039.52
2022-09-21T11:05:04.714Z,99036.77
2022-09-21T11:06:16.991Z,99035.34
2022-09-21T11:07:26.132Z,99035.01
2022-09-21T11:08:36.867Z,99036.39
2022-09-21T11:09:57.566Z,99030.91
2022-09-21T11:11:13.919Z,99029.10
2022-09-21T11:12:25.326Z,99027.60
2022-09-21T11:14:01.128Z,99022.53
2022-09-21T11:15:30.744Z,99021.45
2022-09-21T11:16:40.394Z,99032.52
2022-09-21T11:17:59.330Z,99032.75
2022-09-21T11:19:42.334Z,99031.28
2022-09-21T11:20:43.854Z,99032.67
2022-09-21T11:21:57.584Z,99031.09
2022-09-21T11:23:36.318Z,99030.17
2022-09-21T11:25:04.278Z,99024.47
2022-09-21T11:28:07.138Z,99022.09
2022-09-21T11:29:12.162Z,99023.52
2022-09-21T11:30:17.294Z,99017.48
2022-09-21T11:31:31.906Z,99018.07
2022-09-21T11:32:51.750Z,99024.16
2022-09-21T11:34:05.402Z,99021.75
2022-09-21T11:35:26.906Z,99022.88
2022-09-21T11:36:46.682Z,99022.43
2022-09-21T11:38:04.841Z,99023.50
2022-09-21T11:39:26.434Z,99026.84
2022-09-21T11:40:46.476Z,99025.95
2022-09-21T11:42:11.107Z,99026.04
2022-09-21T11:43:25.694Z,99025.02
2022-09-21T11:44:43.070Z,99025.02
2022-09-21T11:46:01.366Z,99019.77
2022-09-21T11:47:35.221Z,99008.46
2022-09-21T11:49:15.261Z,99013.19
2022-09-21T11:50:30.545Z,99012.05
2022-09-21T11:51:59.357Z,99011.78
2022-09-21T11:53:38.551Z,99019.65
2022-09-21T11:54:58.776Z,99017.08
2022-09-21T11:56:15.377Z,99013.64
2022-09-21T11:57:33.851Z,99012.07
2022-09-21T11:59:04.156Z,99012.05
2022-09-21T12:00:16.199Z,99004.64
2022-09-21T12:01:51.155Z,99005.70
2022-09-21T12:02:52.873Z,99005.44
2022-09-21T12:04:32.225Z,99009.59
2022-09-21T12:05:36.706Z,99001.95
2022-09-21T12:06:50.378Z,99006.34
2022-09-21T12:08:37.396Z,99006.27
2022-09-21T12:10:11.152Z,99007.85
2022-09-21T12:11:50.359Z,99008.80
2022-09-21T12:13:00.670Z,99008.67
2022-09-21T12:14:17.427Z,99007.70
2022-09-21T12:15:38.319Z,99013.20
2022-09-21T12:17:09.441Z,99016.42
2022-09-21T12:18:40.378Z,99015.06
2022-09-21T12:20:03.737Z,99016.52
2022-09-21T12:21:14.536Z,99016.37
2022-09-21T12:22:30.647Z,99014.42
2022-09-21T12:23:43.890Z,99006.63
2022-09-21T12:25:02.653Z,99010.86
2022-09-21T12:26:07.331Z,99014.32
2022-09-21T12:27:28.177Z,99014.08
2022-09-21T12:28:39.397Z,99012.48
2022-09-21T12:29:50.124Z,99016.88
2022-09-21T12:31:01.594Z,99013.16
2022-09-21T12:32:29.104Z,99017.34
2022-09-21T12:33:51.329Z,99014.80
2022-09-21T12:35:02.750Z,99021.70
2022-09-21T12:36:20.377Z,99029.11
2022-09-21T12:37:31.598Z,99028.54
2022-09-21T12:38:40.900Z,99036.36
2022-09-21T12:40:15.215Z,99036.06
2022-09-21T12:41:47.380Z,99035.73
2022-09-21T12:43:01.805Z,99030.45
2022-09-21T12:44:28.741Z,99033.17
2022-09-21T12:45:38.447Z,99027.27
2022-09-21T12:47:16.391Z,99028.22
2022-09-21T12:48:26.570Z,99026.36
2022-09-21T12:49:32.338Z,99030.81
2022-09-21T12:50:45.561Z,99035.02
2022-09-21T12:51:56.773Z,99030.13
2022-09-21T12:52:59.617Z,99030.50
2022-09-21T12:54:14.378Z,99035.70
2022-09-21T12:55:25.783Z,99040.54
2022-09-21T12:57:29.826Z,99035.45
2022-09-21T12:58:57.708Z,99032.79
2022-09-21T13:00:09.706Z,99034.02
2022-09-21T13:01:32.429Z,99033.44
2022-09-21T13:02:48.258Z,99032.24
2022-09-21T13:04:12.661Z,99034.73
2022-09-21T13:05:26.448Z,99035.41
2022-09-21T13:06:57.349Z,99031.95
2022-09-21T13:08:30.506Z,99032.73
2022-09-21T13:09:32.754Z,99031.27
2022-09-21T13:10:43.043Z,99032.77
2022-09-21T13:11:59.826Z,99029.16
2022-09-21T13:13:04.347Z,99030.84
2022-09-21T13:14:06.224Z,99027.55
2022-09-21T13:15:27.266Z,99028.55
2022-09-21T13:16:36.569Z,99028.96
2022-09-21T13:17:38.362Z,99029.19
2022-09-21T13:18:41.760Z,99025.91
2022-09-21T13:19:43.504Z,99026.20
2022-09-21T13:20:46.236Z,99021.85
2022-09-21T13:22:19.808Z,99020.55
2022-09-21T13:23:33.965Z,99020.82
2022-09-21T13:24:35.954Z,99016.83
2022-09-21T13:25:38.341Z,99016.81
2022-09-21T13:26:44.497Z,99015.54
2022-09-21T13:28:04.478Z,99015.05
2022-09-21T13:29:28.572Z,99007.92
2022-09-21T13:30:33.025Z,99009.95
2022-09-21T13:32:00.653Z,99007.71
2022-09-21T13:33:05.193Z,99009.34
2022-09-21T13:34:28.497Z,99009.63
2022-09-21T13:35:48.776Z,99008.56
2022-09-21T13:37:19.481Z,99005.34
2022-09-21T13:38:54.583Z,99010.04
2022-09-21T13:40:02.149Z,99009.55
2022-09-21T13:42:49.877Z,99008.33
2022-09-21T13:44:01.078Z,99006.98